createdAt,value
2019-03-12T00:00:08.337Z,80.20
2019-03-12T00:00:47.215Z,80.50
2019-03-12T00:01:21.737Z,80.20
2019-03-12T00:01:56.236Z,80.20
2019-03-12T00:02:30.809Z,80.30
2019-03-12T00:03:05.312Z,80.30
2019-03-12T00:03:40.072Z,80.30
2019-03-12T00:04:14.583Z,80.20
2019-03-12T00:04:49.075Z,80.10
2019-03-12T00:05:23.583Z,80.20
2019-03-12T00:05:58.141Z,80.10
2019-03-12T00:06:33.113Z,80.10
2019-03-12T00:07:07.721Z,80.00
2019-03-12T00:07:42.215Z,80.00
2019-03-12T00:08:16.712Z,80.80
2019-03-12T00:08:51.259Z,80.20
2019-03-12T00:09:26.081Z,80.30
2019-03-12T00:10:00.565Z,80.20
2019-03-12T00:10:35.238Z,80.10
2019-03-12T00:11:09.712Z,80.20
2019-03-12T00:11:44.220Z,80.00
2019-03-12T00:12:18.698Z,79.80
2019-03-12T00:12:53.241Z,79.80
2019-03-12T00:13:27.734Z,80.00
2019-03-12T00:14:02.272Z,80.20
2019-03-12T00:14:36.856Z,80.30
2019-03-12T00:15:12.008Z,80.60
2019-03-12T00:15:46.502Z,80.50
2019-03-12T00:16:20.989Z,80.40
2019-03-12T00:16:55.488Z,80.30
2019-03-12T00:17:29.983Z,80.20
2019-03-12T00:18:04.521Z,80.20
2019-03-12T00:18:39.020Z,80.10
2019-03-12T00:19:13.525Z,80.00
2019-03-12T00:19:48.085Z,80.20
2019-03-12T00:20:22.689Z,80.30
2019-03-12T00:20:57.194Z,80.30
2019-03-12T00:21:31.685Z,80.40
2019-03-12T00:22:06.169Z,80.40
2019-03-12T00:22:40.668Z,80.40
2019-03-12T00:23:15.297Z,80.30
2019-03-12T00:23:49.830Z,80.40
2019-03-12T00:24:24.561Z,80.20
2019-03-12T00:24:59.057Z,80.20
2019-03-12T00:25:33.830Z,80.30
2019-03-12T00:26:08.392Z,80.40
2019-03-12T00:26:42.910Z,80.50
2019-03-12T00:27:17.396Z,80.50
2019-03-12T00:27:52.324Z,81.20
2019-03-12T00:28:26.976Z,80.70
2019-03-12T00:29:01.567Z,80.60
2019-03-12T00:29:36.082Z,80.50
2019-03-12T00:30:11.038Z,80.70
2019-03-12T00:30:45.572Z,81.00
2019-03-12T00:31:20.063Z,81.00
2019-03-12T00:31:54.570Z,81.00
2019-03-12T00:32:29.078Z,80.90
2019-03-12T00:33:04.025Z,81.00
2019-03-12T00:33:38.530Z,81.00
2019-03-12T00:34:13.101Z,80.90
2019-03-12T00:34:47.714Z,80.60
2019-03-12T00:35:22.217Z,81.20
2019-03-12T00:35:56.724Z,80.70
2019-03-12T00:36:31.212Z,80.80
2019-03-12T00:37:05.721Z,80.80
2019-03-12T00:37:40.291Z,80.70
2019-03-12T00:38:14.853Z,80.60
2019-03-12T00:38:49.355Z,80.30
2019-03-12T00:39:23.908Z,80.50
2019-03-12T00:39:58.389Z,80.00
2019-03-12T00:40:32.931Z,79.80
2019-03-12T00:41:07.486Z,79.70
2019-03-12T00:41:41.976Z,79.80
2019-03-12T00:42:16.489Z,79.70
2019-03-12T00:42:50.991Z,79.90
2019-03-12T00:43:25.555Z,80.00
2019-03-12T00:44:00.157Z,80.10
2019-03-12T00:44:35.039Z,80.20
2019-03-12T00:45:11.181Z,80.00
2019-03-12T00:45:45.704Z,79.80
2019-03-12T00:46:20.221Z,79.60
2019-03-12T00:46:54.698Z,80.20
2019-03-12T00:47:29.194Z,79.50
2019-03-12T00:48:03.873Z,79.60
2019-03-12T00:48:38.746Z,79.70
2019-03-12T00:49:13.322Z,79.90
2019-03-12T00:49:47.894Z,79.80
2019-03-12T00:50:41.795Z,80.00
2019-03-12T00:51:16.355Z,80.00
2019-03-12T00:51:50.884Z,80.00
2019-03-12T00:52:25.382Z,80.00
2019-03-12T00:52:59.885Z,79.90
2019-03-12T00:53:34.415Z,79.70
2019-03-12T00:54:08.902Z,79.70
2019-03-12T00:54:43.417Z,79.70
2019-03-12T00:55:18.129Z,79.80
2019-03-12T00:55:53.025Z,79.90
2019-03-12T00:56:29.117Z,79.50
2019-03-12T00:57:03.683Z,79.40
2019-03-12T00:57:38.187Z,79.60
2019-03-12T00:58:12.707Z,79.50
2019-03-12T00:58:47.362Z,79.70
2019-03-12T00:59:21.916Z,79.70
2019-03-12T00:59:58.441Z,79.70
2019-03-12T01:00:32.614Z,79.60
2019-03-12T01:01:07.115Z,79.80
2019-03-12T01:01:41.681Z,79.90
2019-03-12T01:02:16.188Z,79.90
2019-03-12T01:02:50.787Z,79.80
2019-03-12T01:03:25.298Z,80.00
2019-03-12T01:03:59.946Z,80.10
2019-03-12T01:04:34.452Z,79.70
2019-03-12T01:05:09.231Z,79.80
2019-03-12T01:05:43.745Z,79.90
2019-03-12T01:06:18.248Z,79.90
2019-03-12T01:06:52.760Z,80.00
2019-03-12T01:07:29.798Z,80.00
2019-03-12T01:08:04.749Z,80.00
2019-03-12T01:08:39.279Z,80.00
2019-03-12T01:09:14.242Z,80.20
2019-03-12T01:09:48.755Z,80.50
2019-03-12T01:10:23.510Z,80.50
2019-03-12T01:10:58.045Z,80.50
2019-03-12T01:11:32.540Z,80.50
2019-03-12T01:12:07.095Z,80.70
2019-03-12T01:12:41.574Z,80.90
2019-03-12T01:13:17.420Z,80.90
2019-03-12T01:13:52.000Z,81.10
2019-03-12T01:14:26.504Z,81.40
2019-03-12T01:15:00.990Z,81.80
2019-03-12T01:15:35.477Z,81.90
2019-03-12T01:16:09.958Z,82.20
2019-03-12T01:16:44.449Z,82.50
2019-03-12T01:17:18.955Z,82.70
2019-03-12T01:17:53.453Z,82.70
2019-03-12T01:18:28.024Z,82.80
2019-03-12T01:19:02.510Z,82.80
2019-03-12T01:19:37.001Z,83.20
2019-03-12T01:20:14.018Z,82.90
2019-03-12T01:20:48.625Z,83.30
2019-03-12T01:21:23.178Z,83.50
2019-03-12T01:21:57.740Z,83.60
2019-03-12T01:22:32.334Z,83.90
2019-03-12T01:23:06.962Z,83.90
2019-03-12T01:23:41.604Z,83.90
2019-03-12T01:24:16.194Z,83.90
2019-03-12T01:24:50.714Z,83.60
2019-03-12T01:25:25.269Z,83.50
2019-03-12T01:25:59.777Z,83.00
2019-03-12T01:26:34.338Z,82.90
2019-03-12T01:27:08.916Z,82.70
2019-03-12T01:27:46.409Z,82.80
2019-03-12T01:28:20.961Z,82.90
2019-03-12T01:28:55.481Z,82.80
2019-03-12T01:29:29.981Z,82.80
2019-03-12T01:30:07.681Z,82.70
2019-03-12T01:30:42.182Z,82.70
2019-03-12T01:31:16.771Z,82.90
2019-03-12T01:31:51.264Z,83.60
2019-03-12T01:32:25.759Z,82.90
2019-03-12T01:33:00.314Z,82.90
2019-03-12T01:33:34.826Z,82.90
2019-03-12T01:34:09.328Z,82.90
2019-03-12T01:34:43.914Z,83.10
2019-03-12T01:35:18.475Z,82.80
2019-03-12T01:35:53.002Z,82.90
2019-03-12T01:36:27.564Z,82.90
2019-03-12T01:37:02.433Z,82.80
2019-03-12T01:37:36.991Z,82.80
2019-03-12T01:38:11.485Z,82.60
2019-03-12T01:38:46.040Z,82.80
2019-03-12T01:39:20.595Z,83.00
2019-03-12T01:39:55.076Z,82.90
2019-03-12T01:40:29.585Z,83.00
2019-03-12T01:41:04.149Z,82.80
2019-03-12T01:41:38.671Z,82.90
2019-03-12T01:42:13.231Z,83.00
2019-03-12T01:42:47.748Z,82.80
2019-03-12T01:43:22.307Z,82.60
2019-03-12T01:43:56.802Z,82.60
2019-03-12T01:44:31.293Z,82.60
2019-03-12T01:45:08.332Z,82.40
2019-03-12T01:45:42.898Z,82.20
2019-03-12T01:46:17.389Z,82.40
2019-03-12T01:46:51.940Z,82.40
2019-03-12T01:47:26.469Z,82.10
2019-03-12T01:48:01.011Z,82.90
2019-03-12T01:48:35.560Z,82.20
2019-03-12T01:49:10.053Z,82.30
2019-03-12T01:49:44.648Z,82.40
2019-03-12T01:50:19.153Z,82.50
2019-03-12T01:50:53.647Z,82.40
2019-03-12T01:51:31.068Z,82.60
2019-03-12T01:52:04.885Z,82.70
2019-03-12T01:52:40.268Z,82.70
2019-03-12T01:53:14.769Z,82.60
2019-03-12T01:53:49.253Z,82.90
2019-03-12T01:54:23.749Z,83.00
2019-03-12T01:54:58.339Z,83.20
2019-03-12T01:55:32.846Z,83.40
2019-03-12T01:56:07.342Z,83.50
2019-03-12T01:56:41.853Z,83.30
2019-03-12T01:57:16.357Z,83.20
2019-03-12T01:57:50.885Z,83.10
2019-03-12T01:58:25.378Z,83.30
2019-03-12T01:59:01.865Z,82.80
2019-03-12T01:59:36.124Z,82.70
2019-03-12T02:00:16.056Z,82.50
2019-03-12T02:00:50.625Z,82.60
2019-03-12T02:01:25.119Z,82.70
2019-03-12T02:01:59.689Z,82.50
2019-03-12T02:02:34.185Z,82.60
2019-03-12T02:03:08.706Z,82.40
2019-03-12T02:03:43.281Z,82.10
2019-03-12T02:04:17.776Z,82.20
2019-03-12T02:04:52.265Z,82.10
2019-03-12T02:05:26.904Z,82.20
2019-03-12T02:06:01.404Z,82.00
2019-03-12T02:06:36.055Z,81.90
2019-03-12T02:07:10.570Z,81.90
2019-03-12T02:07:45.326Z,82.00
2019-03-12T02:08:19.825Z,82.20
2019-03-12T02:08:54.521Z,82.00
2019-03-12T02:09:29.829Z,81.90
2019-03-12T02:10:06.092Z,81.90
2019-03-12T02:10:42.445Z,81.70
2019-03-12T02:11:19.120Z,82.00
2019-03-12T02:11:53.653Z,81.80
2019-03-12T02:12:28.153Z,81.70
2019-03-12T02:13:02.737Z,81.60
2019-03-12T02:13:37.226Z,81.40
2019-03-12T02:14:26.498Z,81.40
2019-03-12T02:15:00.995Z,81.30
2019-03-12T02:15:35.503Z,81.00
2019-03-12T02:16:10.006Z,80.80
2019-03-12T02:16:44.573Z,80.40
2019-03-12T02:17:19.067Z,80.40
2019-03-12T02:17:53.560Z,80.60
2019-03-12T02:18:28.123Z,80.40
2019-03-12T02:19:02.693Z,80.50
2019-03-12T02:19:37.267Z,80.60
2019-03-12T02:20:14.103Z,80.80
2019-03-12T02:20:48.657Z,80.70
2019-03-12T02:21:23.139Z,80.80
2019-03-12T02:21:57.650Z,80.80
2019-03-12T02:22:32.575Z,80.90
2019-03-12T02:23:07.081Z,80.90
2019-03-12T02:23:41.808Z,80.60
2019-03-12T02:24:16.593Z,80.70
2019-03-12T02:24:53.060Z,80.60
2019-03-12T02:25:27.813Z,80.60
2019-03-12T02:26:02.305Z,80.70
2019-03-12T02:26:36.866Z,80.70
2019-03-12T02:27:11.360Z,80.60
2019-03-12T02:27:45.860Z,80.70
2019-03-12T02:28:20.343Z,80.50
2019-03-12T02:28:54.829Z,80.50
2019-03-12T02:29:29.329Z,80.10
2019-03-12T02:30:15.502Z,80.00
2019-03-12T02:30:50.287Z,80.30
2019-03-12T02:31:24.855Z,80.30
2019-03-12T02:31:59.355Z,80.20
2019-03-12T02:32:34.145Z,80.00
2019-03-12T02:33:08.682Z,80.10
2019-03-12T02:33:43.221Z,80.00
2019-03-12T02:34:17.857Z,80.00
2019-03-12T02:34:52.423Z,79.70
2019-03-12T02:35:27.194Z,79.60
2019-03-12T02:36:01.683Z,79.80
2019-03-12T02:36:36.181Z,80.00
2019-03-12T02:37:10.773Z,80.10
2019-03-12T02:37:45.369Z,80.70
2019-03-12T02:38:19.920Z,80.10
2019-03-12T02:38:54.406Z,80.20
2019-03-12T02:39:28.895Z,80.40
2019-03-12T02:40:04.300Z,80.40
2019-03-12T02:40:38.857Z,80.20
2019-03-12T02:41:13.352Z,80.20
2019-03-12T02:41:55.078Z,80.00
2019-03-12T02:42:29.599Z,80.10
2019-03-12T02:43:04.267Z,80.10
2019-03-12T02:43:38.828Z,80.00
2019-03-12T02:44:13.320Z,80.10
2019-03-12T02:44:48.202Z,80.20
2019-03-12T02:45:22.770Z,80.10
2019-03-12T02:45:57.325Z,80.00
2019-03-12T02:46:31.890Z,80.00
2019-03-12T02:47:06.465Z,80.00
2019-03-12T02:47:41.436Z,80.00
2019-03-12T02:48:15.921Z,80.00
2019-03-12T02:48:50.421Z,79.90
2019-03-12T02:49:25.018Z,79.90
2019-03-12T02:49:59.556Z,80.00
2019-03-12T02:50:34.138Z,80.00
2019-03-12T02:51:09.096Z,80.20
2019-03-12T02:51:43.648Z,80.20
2019-03-12T02:52:18.213Z,80.00
2019-03-12T02:52:52.761Z,80.00
2019-03-12T02:53:27.380Z,79.80
2019-03-12T02:54:01.984Z,80.00
2019-03-12T02:54:36.561Z,80.00
2019-03-12T02:55:12.113Z,79.80
2019-03-12T02:55:46.659Z,79.80
2019-03-12T02:56:21.146Z,80.10
2019-03-12T02:56:55.773Z,80.10
2019-03-12T02:57:30.366Z,80.20
2019-03-12T02:58:04.989Z,80.10
2019-03-12T02:58:39.485Z,80.20
2019-03-12T02:59:13.990Z,80.30
2019-03-12T02:59:48.500Z,80.30
2019-03-12T03:00:26.817Z,80.30
2019-03-12T03:01:01.416Z,80.30
2019-03-12T03:01:35.933Z,80.40
2019-03-12T03:02:10.437Z,80.20
2019-03-12T03:02:44.929Z,80.40
2019-03-12T03:03:19.457Z,80.40
2019-03-12T03:03:53.985Z,80.40
2019-03-12T03:04:28.525Z,80.30
2019-03-12T03:05:03.564Z,80.40
2019-03-12T03:05:40.025Z,80.50
2019-03-12T03:06:22.287Z,80.60
2019-03-12T03:06:58.422Z,80.60
2019-03-12T03:07:52.939Z,80.60
2019-03-12T03:08:29.146Z,80.60
2019-03-12T03:09:04.317Z,80.40
2019-03-12T03:09:38.861Z,80.40
2019-03-12T03:10:14.647Z,80.30
2019-03-12T03:10:49.146Z,80.30
2019-03-12T03:11:23.732Z,80.40
2019-03-12T03:11:58.333Z,80.80
2019-03-12T03:12:32.830Z,80.60
2019-03-12T03:13:07.389Z,80.50
2019-03-12T03:13:41.871Z,80.40
2019-03-12T03:14:34.870Z,80.40
2019-03-12T03:15:12.442Z,80.60
2019-03-12T03:15:47.307Z,80.40
2019-03-12T03:16:24.207Z,80.50
2019-03-12T03:16:58.142Z,80.20
2019-03-12T03:17:32.700Z,80.20
2019-03-12T03:18:07.205Z,80.20
2019-03-12T03:18:41.770Z,80.10
2019-03-12T03:19:16.259Z,80.00
2019-03-12T03:19:50.831Z,80.00
2019-03-12T03:20:25.383Z,80.20
2019-03-12T03:20:59.886Z,80.20
2019-03-12T03:21:34.374Z,80.20
2019-03-12T03:22:08.898Z,80.30
2019-03-12T03:22:43.828Z,80.40
2019-03-12T03:23:18.339Z,80.50
2019-03-12T03:23:52.905Z,80.60
2019-03-12T03:24:27.490Z,80.50
2019-03-12T03:25:02.407Z,80.60
2019-03-12T03:25:37.041Z,80.70
2019-03-12T03:26:11.588Z,80.60
2019-03-12T03:26:46.133Z,80.40
2019-03-12T03:27:20.693Z,80.50
2019-03-12T03:27:55.192Z,80.60
2019-03-12T03:28:29.765Z,80.60
2019-03-12T03:29:04.335Z,80.50
2019-03-12T03:29:38.905Z,80.50
2019-03-12T03:30:19.725Z,80.60
2019-03-12T03:30:54.440Z,80.40
2019-03-12T03:31:29.012Z,80.30
2019-03-12T03:32:03.624Z,80.10
2019-03-12T03:32:38.187Z,80.00
2019-03-12T03:33:12.767Z,79.90
2019-03-12T03:33:47.338Z,80.60
2019-03-12T03:34:27.596Z,79.90
2019-03-12T03:34:58.181Z,80.00
2019-03-12T03:35:32.707Z,80.10
2019-03-12T03:36:07.286Z,79.30
2019-03-12T03:36:41.928Z,80.00
2019-03-12T03:37:16.514Z,80.10
2019-03-12T03:37:51.191Z,79.90
2019-03-12T03:38:25.726Z,79.90
2019-03-12T03:39:00.223Z,79.90
2019-03-12T03:39:34.717Z,80.00
2019-03-12T03:40:10.813Z,80.20
2019-03-12T03:40:45.305Z,80.30
2019-03-12T03:41:20.023Z,80.20
2019-03-12T03:41:54.553Z,80.30
2019-03-12T03:42:29.086Z,80.10
2019-03-12T03:43:03.590Z,80.10
2019-03-12T03:43:38.180Z,80.30
2019-03-12T03:44:12.721Z,80.40
2019-03-12T03:44:47.217Z,80.50
2019-03-12T03:45:21.778Z,80.40
2019-03-12T03:45:56.303Z,80.50
2019-03-12T03:46:31.214Z,80.40
2019-03-12T03:47:05.773Z,80.40
2019-03-12T03:47:40.350Z,80.30
2019-03-12T03:48:14.911Z,80.30
2019-03-12T03:48:49.447Z,80.00
2019-03-12T03:49:24.373Z,80.00
2019-03-12T03:49:58.864Z,80.00
2019-03-12T03:50:33.368Z,79.90
2019-03-12T03:51:07.936Z,79.90
2019-03-12T03:51:42.438Z,80.00
2019-03-12T03:52:16.937Z,80.00
2019-03-12T03:52:51.427Z,80.20
2019-03-12T03:53:25.922Z,80.20
2019-03-12T03:54:00.426Z,80.20
2019-03-12T03:54:35.031Z,80.20
2019-03-12T03:55:12.531Z,80.40
2019-03-12T03:55:48.003Z,80.40
2019-03-12T03:56:22.597Z,80.50
2019-03-12T03:56:57.102Z,80.30
2019-03-12T03:57:31.629Z,80.20
2019-03-12T03:58:06.247Z,80.40
2019-03-12T03:58:40.830Z,80.70
2019-03-12T03:59:15.350Z,80.30
2019-03-12T03:59:49.876Z,80.40
2019-03-12T04:00:25.193Z,80.40
2019-03-12T04:00:59.689Z,80.50
2019-03-12T04:01:34.253Z,80.60
2019-03-12T04:02:08.869Z,80.70
2019-03-12T04:02:43.412Z,80.60
2019-03-12T04:03:17.941Z,80.60
2019-03-12T04:03:52.554Z,80.40
2019-03-12T04:04:27.058Z,80.30
2019-03-12T04:05:01.681Z,80.30
2019-03-12T04:05:36.259Z,80.30
2019-03-12T04:06:10.842Z,80.20
2019-03-12T04:06:45.411Z,80.30
2019-03-12T04:07:20.053Z,80.40
2019-03-12T04:07:54.571Z,81.00
2019-03-12T04:08:29.140Z,80.50
2019-03-12T04:09:04.694Z,80.60
2019-03-12T04:09:39.273Z,80.60
2019-03-12T04:10:14.211Z,80.70
2019-03-12T04:10:48.709Z,80.60
2019-03-12T04:11:23.295Z,80.70
2019-03-12T04:11:58.326Z,80.70
2019-03-12T04:12:32.962Z,80.90
2019-03-12T04:13:07.665Z,80.80
2019-03-12T04:13:42.223Z,80.80
2019-03-12T04:14:16.730Z,80.90
2019-03-12T04:14:51.290Z,80.90
2019-03-12T04:15:25.868Z,80.80
2019-03-12T04:16:00.635Z,80.80
2019-03-12T04:16:35.129Z,80.90
2019-03-12T04:17:09.649Z,81.10
2019-03-12T04:17:44.212Z,81.00
2019-03-12T04:18:18.708Z,81.60
2019-03-12T04:18:53.266Z,81.10
2019-03-12T04:19:27.843Z,81.00
2019-03-12T04:20:02.493Z,81.00
2019-03-12T04:20:36.986Z,80.90
2019-03-12T04:21:11.478Z,80.70
2019-03-12T04:21:46.057Z,80.70
2019-03-12T04:22:20.667Z,80.50
2019-03-12T04:22:55.241Z,80.40
2019-03-12T04:23:29.873Z,80.60
2019-03-12T04:24:04.362Z,80.50
2019-03-12T04:24:38.878Z,80.50
2019-03-12T04:25:13.394Z,80.60
2019-03-12T04:25:47.948Z,80.60
2019-03-12T04:26:22.510Z,80.70
2019-03-12T04:26:57.093Z,80.70
2019-03-12T04:27:31.585Z,80.70
2019-03-12T04:28:06.073Z,80.70
2019-03-12T04:28:40.710Z,80.60
2019-03-12T04:29:15.209Z,80.70
2019-03-12T04:29:49.694Z,80.60
2019-03-12T04:30:24.282Z,80.70
2019-03-12T04:30:58.785Z,80.90
2019-03-12T04:31:33.283Z,80.60
2019-03-12T04:32:07.850Z,80.70
2019-03-12T04:32:42.420Z,80.60
2019-03-12T04:33:52.069Z,80.10
2019-03-12T04:34:26.670Z,80.50
2019-03-12T04:35:01.242Z,80.50
2019-03-12T04:35:35.800Z,80.60
2019-03-12T04:36:10.342Z,80.60
2019-03-12T04:36:44.913Z,80.70
2019-03-12T04:37:19.490Z,80.30
2019-03-12T04:37:53.987Z,80.70
2019-03-12T04:38:28.468Z,80.80
2019-03-12T04:39:04.439Z,80.50
2019-03-12T04:39:39.030Z,80.50
2019-03-12T04:40:13.804Z,80.70
2019-03-12T04:40:48.287Z,80.70
2019-03-12T04:41:22.794Z,80.80
2019-03-12T04:41:57.285Z,80.90
2019-03-12T04:42:32.114Z,80.70
2019-03-12T04:43:06.601Z,80.50
2019-03-12T04:43:41.103Z,80.80
2019-03-12T04:44:15.691Z,80.60
2019-03-12T04:44:50.248Z,80.70
2019-03-12T04:45:24.826Z,80.80
2019-03-12T04:45:59.309Z,80.90
2019-03-12T04:46:33.816Z,81.00
2019-03-12T04:47:08.306Z,80.40
2019-03-12T04:47:43.248Z,80.70
2019-03-12T04:48:17.754Z,80.70
2019-03-12T04:48:52.317Z,80.10
2019-03-12T04:49:26.814Z,80.60
2019-03-12T04:50:01.688Z,80.30
2019-03-12T04:50:36.174Z,80.20
2019-03-12T04:51:10.685Z,80.30
2019-03-12T04:51:45.177Z,80.10
2019-03-12T04:52:19.663Z,79.90
2019-03-12T04:52:54.145Z,79.90
2019-03-12T04:53:28.643Z,80.00
2019-03-12T04:54:03.147Z,80.40
2019-03-12T04:54:37.707Z,80.00
2019-03-12T04:55:14.816Z,80.00
2019-03-12T04:55:49.383Z,80.90
2019-03-12T04:56:23.945Z,80.30
2019-03-12T04:56:58.601Z,80.40
2019-03-12T04:57:33.204Z,80.20
2019-03-12T04:58:07.703Z,80.20
2019-03-12T04:58:42.469Z,80.30
2019-03-12T04:59:16.963Z,80.40
2019-03-12T04:59:51.460Z,80.20
2019-03-12T05:00:25.950Z,80.00
2019-03-12T05:01:00.523Z,80.20
2019-03-12T05:01:35.001Z,80.10
2019-03-12T05:02:09.578Z,80.00
2019-03-12T05:02:44.209Z,80.10
2019-03-12T05:03:18.760Z,80.10
2019-03-12T05:03:53.254Z,80.00
2019-03-12T05:04:27.750Z,80.10
2019-03-12T05:05:02.257Z,80.30
2019-03-12T05:05:37.198Z,80.30
2019-03-12T05:06:11.733Z,80.20
2019-03-12T05:06:46.296Z,80.00
2019-03-12T05:07:20.786Z,79.80
2019-03-12T05:07:55.281Z,80.00
2019-03-12T05:08:29.776Z,79.60
2019-03-12T05:09:07.984Z,78.90
2019-03-12T05:09:42.471Z,79.40
2019-03-12T05:10:17.040Z,79.60
2019-03-12T05:10:51.537Z,79.60
2019-03-12T05:11:26.116Z,79.60
2019-03-12T05:12:00.613Z,79.50
2019-03-12T05:12:35.177Z,79.40
2019-03-12T05:13:09.760Z,79.50
2019-03-12T05:13:47.344Z,79.60
2019-03-12T05:14:31.242Z,79.70
2019-03-12T05:15:08.805Z,79.70
2019-03-12T05:15:43.372Z,79.90
2019-03-12T05:16:19.620Z,79.50
2019-03-12T05:16:56.667Z,79.40
2019-03-12T05:17:31.155Z,79.50
2019-03-12T05:18:05.675Z,79.50
2019-03-12T05:18:41.265Z,79.70
2019-03-12T05:19:15.926Z,79.60
2019-03-12T05:19:50.438Z,79.50
2019-03-12T05:20:25.066Z,79.50
2019-03-12T05:20:59.659Z,79.50
2019-03-12T05:21:34.265Z,79.20
2019-03-12T05:22:08.761Z,79.10
2019-03-12T05:22:43.326Z,79.10
2019-03-12T05:23:17.836Z,79.20
2019-03-12T05:23:53.966Z,79.20
2019-03-12T05:24:28.543Z,79.20
2019-03-12T05:25:03.228Z,79.20
2019-03-12T05:25:37.723Z,79.80
2019-03-12T05:26:12.224Z,79.20
2019-03-12T05:26:47.086Z,79.30
2019-03-12T05:27:24.762Z,79.20
2019-03-12T05:27:57.802Z,79.00
2019-03-12T05:28:32.317Z,79.00
2019-03-12T05:29:06.884Z,78.70
2019-03-12T05:29:41.382Z,78.70
2019-03-12T05:30:18.006Z,78.70
2019-03-12T05:30:52.500Z,78.40
2019-03-12T05:31:27.065Z,78.40
2019-03-12T05:32:01.829Z,78.60
2019-03-12T05:32:36.357Z,78.70
2019-03-12T05:33:10.863Z,78.80
2019-03-12T05:33:45.363Z,79.00
2019-03-12T05:34:23.076Z,78.80
2019-03-12T05:34:56.124Z,79.50
2019-03-12T05:35:31.076Z,78.80
2019-03-12T05:36:05.882Z,79.00
2019-03-12T05:36:40.692Z,78.90
2019-03-12T05:37:15.566Z,78.90
2019-03-12T05:37:51.913Z,78.90
2019-03-12T05:38:26.424Z,78.90
2019-03-12T05:39:01.005Z,79.10
2019-03-12T05:39:35.498Z,79.00
2019-03-12T05:40:12.010Z,78.90
2019-03-12T05:40:46.523Z,78.90
2019-03-12T05:41:21.102Z,79.20
2019-03-12T05:41:55.624Z,78.90
2019-03-12T05:42:30.256Z,78.90
2019-03-12T05:43:04.820Z,78.80
2019-03-12T05:43:39.384Z,78.80
2019-03-12T05:44:13.974Z,79.00
2019-03-12T05:44:48.464Z,79.00
2019-03-12T05:45:22.960Z,78.80
2019-03-12T05:45:57.493Z,78.60
2019-03-12T05:46:32.368Z,78.60
2019-03-12T05:47:08.355Z,78.80
2019-03-12T05:47:43.071Z,78.50
2019-03-12T05:48:17.568Z,78.20
2019-03-12T05:48:52.057Z,78.50
2019-03-12T05:49:31.737Z,78.50
2019-03-12T05:50:09.441Z,78.50
2019-03-12T05:50:44.291Z,78.70
2019-03-12T05:51:18.775Z,78.60
2019-03-12T05:51:53.310Z,78.50
2019-03-12T05:52:27.800Z,78.40
2019-03-12T05:53:15.548Z,78.40
2019-03-12T05:53:53.185Z,78.50
2019-03-12T05:54:28.019Z,78.40
2019-03-12T05:55:04.988Z,78.40
2019-03-12T05:55:41.218Z,78.60
2019-03-12T05:56:17.025Z,78.50
2019-03-12T05:56:55.009Z,78.50
2019-03-12T05:57:31.320Z,78.40
2019-03-12T05:58:06.222Z,78.20
2019-03-12T05:58:40.722Z,78.20
2019-03-12T05:59:15.210Z,78.30
2019-03-12T05:59:49.779Z,78.40
2019-03-12T06:00:25.985Z,78.30
2019-03-12T06:01:00.542Z,78.20
2019-03-12T06:01:35.032Z,78.30
2019-03-12T06:02:09.527Z,78.50
2019-03-12T06:02:44.216Z,78.50
2019-03-12T06:03:18.712Z,78.40
2019-03-12T06:03:56.354Z,78.30
2019-03-12T06:04:30.841Z,78.40
2019-03-12T06:05:06.780Z,78.20
2019-03-12T06:05:41.290Z,78.30
2019-03-12T06:06:15.968Z,78.40
2019-03-12T06:06:50.562Z,79.20
2019-03-12T06:07:25.097Z,78.60
2019-03-12T06:07:59.622Z,78.90
2019-03-12T06:08:34.109Z,79.00
2019-03-12T06:09:08.677Z,78.90
2019-03-12T06:09:43.225Z,78.80
2019-03-12T06:10:17.819Z,78.50
2019-03-12T06:10:52.738Z,78.80
2019-03-12T06:11:27.239Z,78.60
2019-03-12T06:12:01.934Z,78.70
2019-03-12T06:12:36.564Z,78.50
2019-03-12T06:13:11.168Z,78.60
2019-03-12T06:14:05.050Z,78.40
2019-03-12T06:14:39.545Z,78.40
2019-03-12T06:15:15.603Z,78.50
2019-03-12T06:15:53.115Z,78.50
2019-03-12T06:16:26.370Z,78.50
2019-03-12T06:17:00.871Z,78.50
2019-03-12T06:17:35.378Z,78.40
2019-03-12T06:18:09.937Z,78.30
2019-03-12T06:18:44.436Z,78.40
2019-03-12T06:19:19.231Z,78.50
2019-03-12T06:19:54.236Z,78.40
2019-03-12T06:20:28.762Z,78.50
2019-03-12T06:21:03.264Z,78.70
2019-03-12T06:21:37.906Z,78.80
2019-03-12T06:22:12.478Z,78.50
2019-03-12T06:22:46.985Z,78.40
2019-03-12T06:23:21.555Z,78.50
2019-03-12T06:23:56.145Z,78.40
2019-03-12T06:24:30.696Z,78.50
2019-03-12T06:25:06.178Z,78.30
2019-03-12T06:25:40.735Z,78.00
2019-03-12T06:26:15.302Z,78.10
2019-03-12T06:26:49.815Z,78.40
2019-03-12T06:27:25.637Z,78.30
2019-03-12T06:28:00.267Z,78.30
2019-03-12T06:28:34.831Z,78.60
2019-03-12T06:29:10.436Z,78.50
2019-03-12T06:29:44.929Z,78.60
2019-03-12T06:30:20.570Z,78.40
2019-03-12T06:31:13.315Z,78.40
2019-03-12T06:31:52.270Z,78.40
2019-03-12T06:32:31.397Z,77.90
2019-03-12T06:33:13.794Z,77.70
2019-03-12T06:33:56.246Z,78.40
2019-03-12T06:34:32.382Z,77.80
2019-03-12T06:35:09.365Z,77.90
2019-03-12T06:35:45.496Z,77.90
2019-03-12T06:36:24.356Z,78.00
2019-03-12T06:37:00.669Z,78.30
2019-03-12T06:37:42.623Z,78.30
2019-03-12T06:38:21.605Z,78.50
2019-03-12T06:39:14.225Z,78.10
2019-03-12T06:39:56.376Z,78.10
2019-03-12T06:40:44.572Z,78.30
2019-03-12T06:41:29.962Z,78.50
2019-03-12T06:42:11.888Z,78.30
2019-03-12T06:42:53.835Z,78.30
2019-03-12T06:43:33.723Z,78.20
2019-03-12T06:44:10.203Z,78.10
2019-03-12T06:44:48.843Z,78.20
2019-03-12T06:45:25.077Z,78.20
2019-03-12T06:46:13.276Z,78.20
2019-03-12T06:47:04.538Z,78.40
2019-03-12T06:47:52.690Z,78.70
2019-03-12T06:48:37.533Z,78.40
2019-03-12T06:49:30.083Z,78.20
2019-03-12T06:50:23.920Z,78.50
2019-03-12T06:51:00.116Z,78.70
2019-03-12T06:51:52.657Z,78.80
2019-03-12T06:52:37.357Z,78.60
2019-03-12T06:53:13.582Z,78.70
2019-03-12T06:53:58.896Z,78.80
2019-03-12T06:54:35.120Z,78.70
2019-03-12T06:55:11.278Z,78.70
2019-03-12T06:55:50.574Z,78.50
2019-03-12T06:56:33.724Z,78.50
2019-03-12T06:57:13.133Z,78.70
2019-03-12T06:58:21.822Z,78.60
2019-03-12T06:59:03.758Z,78.60
2019-03-12T06:59:42.506Z,78.00
2019-03-12T07:00:24.594Z,78.00
2019-03-12T07:01:16.008Z,78.20
2019-03-12T07:01:52.189Z,78.20
2019-03-12T07:02:28.341Z,78.20
2019-03-12T07:03:04.568Z,78.30
2019-03-12T07:03:54.520Z,78.40
2019-03-12T07:04:33.598Z,78.40
2019-03-12T07:05:09.735Z,78.60
2019-03-12T07:05:58.096Z,78.40
2019-03-12T07:06:43.178Z,78.20
2019-03-12T07:07:22.085Z,78.40
2019-03-12T07:07:58.216Z,78.50
2019-03-12T07:08:49.440Z,78.00
2019-03-12T07:09:25.659Z,77.90
2019-03-12T07:10:04.819Z,78.00
2019-03-12T07:10:56.814Z,78.00
2019-03-12T07:11:34.849Z,77.70
2019-03-12T07:12:27.598Z,77.60
2019-03-12T07:13:06.512Z,77.70
2019-03-12T07:13:48.529Z,77.10
2019-03-12T07:14:36.953Z,77.30
2019-03-12T07:15:13.224Z,77.20
2019-03-12T07:15:52.163Z,77.20
2019-03-12T07:16:28.364Z,77.10
2019-03-12T07:17:04.571Z,77.30
2019-03-12T07:17:49.608Z,77.30
2019-03-12T07:18:34.955Z,77.80
2019-03-12T07:19:20.036Z,76.90
2019-03-12T07:19:56.189Z,77.00
2019-03-12T07:20:47.325Z,77.10
2019-03-12T07:21:38.520Z,77.30
2019-03-12T07:22:14.725Z,76.70
2019-03-12T07:22:59.663Z,76.70
2019-03-12T07:23:52.270Z,76.50
2019-03-12T07:24:32.724Z,76.30
2019-03-12T07:25:16.622Z,76.40
2019-03-12T07:26:01.833Z,76.30
2019-03-12T07:26:37.993Z,76.50
2019-03-12T07:27:17.394Z,76.40
2019-03-12T07:27:56.286Z,76.10
2019-03-12T07:28:35.344Z,76.10
2019-03-12T07:29:11.747Z,76.40
2019-03-12T07:29:47.977Z,76.60
2019-03-12T07:30:24.179Z,76.40
2019-03-12T07:31:18.471Z,76.50
2019-03-12T07:32:09.862Z,76.30
2019-03-12T07:32:56.322Z,76.40
2019-03-12T07:34:03.737Z,76.20
2019-03-12T07:34:56.401Z,76.20
2019-03-12T07:35:47.851Z,76.30
2019-03-12T07:36:39.420Z,76.40
2019-03-12T07:37:24.489Z,76.80
2019-03-12T07:38:03.451Z,75.60
2019-03-12T07:38:42.104Z,75.10
2019-03-12T07:39:18.231Z,75.20
2019-03-12T07:39:54.374Z,75.60
2019-03-12T07:40:30.596Z,75.70
2019-03-12T07:41:30.376Z,75.40
2019-03-12T07:42:16.223Z,75.40
2019-03-12T07:43:04.127Z,75.70
2019-03-12T07:43:55.585Z,75.50
2019-03-12T07:44:31.735Z,75.70
2019-03-12T07:45:15.492Z,75.00